Time;durP1;ratioP1;P1;durP2;ratioP2;P2;SDS_P1;SDS_P2;PMS_P1;PMS_P2;Temp;Humidity;BMP_temperature;BMP_pressure;BME280_temperature;BME280_humidity;BME280_pressure;Samples;Min_cycle;Max_cycle;Signal;HPM_P1;HPM_P2
2022/12/03 00:01:14;;;;;;;78.23;40.10;;;;;;;;;;5063383;28;20549;-74
2022/12/03 00:03:40;;;;;;;75.67;41.70;;;;;;;;;;5057381;28;20193;-75
2022/12/03 00:06:08;;;;;;;77.43;39.97;;;;;;;;;;5053111;28;20186;-75
2022/12/03 00:08:34;;;;;;;76.60;40.93;;;;;;;;;;5051883;28;20257;-74
2022/12/03 00:11:00;;;;;;;71.50;39.93;;;;;;;;;;5055731;28;20267;-74
2022/12/03 00:13:26;;;;;;;81.77;41.87;;;;;;;;;;5053269;28;20277;-73
2022/12/03 00:15:52;;;;;;;78.47;40.80;;;;;;;;;;5060114;28;20681;-76
2022/12/03 00:18:18;;;;;;;86.10;42.60;;;;;;;;;;5057089;28;20213;-76
2022/12/03 00:20:44;;;;;;;81.53;41.90;;;;;;;;;;5069117;28;20175;-75
2022/12/03 00:23:10;;;;;;;76.70;40.63;;;;;;;;;;5066470;28;20176;-76
2022/12/03 00:25:36;;;;;;;74.70;41.27;;;;;;;;;;5068336;28;20169;-75
2022/12/03 00:28:02;;;;;;;77.80;39.90;;;;;;;;;;5056543;28;20194;-76
2022/12/03 00:30:28;;;;;;;74.60;39.07;;;;;;;;;;5056647;28;20193;-75
2022/12/03 00:32:54;;;;;;;82.87;39.97;;;;;;;;;;5054157;28;20223;-77
2022/12/03 00:35:20;;;;;;;74.23;38.53;;;;;;;;;;5067331;28;20177;-74
2022/12/03 00:37:46;;;;;;;73.57;37.57;;;;;;;;;;5053951;28;21017;-76
2022/12/03 00:40:12;;;;;;;76.93;39.43;;;;;;;;;;5055649;28;20180;-76
2022/12/03 00:42:38;;;;;;;78.80;39.60;;;;;;;;;;5053432;28;20592;-76
2022/12/03 00:45:04;;;;;;;77.83;39.90;;;;;;;;;;5059772;28;20649;-74
2022/12/03 00:47:31;;;;;;;71.77;38.50;;;;;;;;;;5067970;28;20749;-75
2022/12/03 00:49:57;;;;;;;82.40;40.87;;;;;;;;;;5069282;28;20211;-75
2022/12/03 00:52:23;;;;;;;83.23;41.23;;;;;;;;;;5060160;28;20177;-76
2022/12/03 00:54:49;;;;;;;80.30;39.47;;;;;;;;;;5068413;28;20664;-76
2022/12/03 00:57:15;;;;;;;78.20;37.90;;;;;;;;;;5065693;28;20186;-76
2022/12/03 00:59:41;;;;;;;72.73;40.20;;;;;;;;;;5067814;28;20182;-75
2022/12/03 01:02:07;;;;;;;77.20;39.87;;;;;;;;;;5071267;28;20631;-75
2022/12/03 01:04:33;;;;;;;77.57;40.23;;;;;;;;;;5061856;28;20267;-76
2022/12/03 01:06:59;;;;;;;76.30;38.60;;;;;;;;;;5078925;28;20254;-76
2022/12/03 01:09:25;;;;;;;78.97;39.57;;;;;;;;;;5083041;28;20184;-75
2022/12/03 01:11:51;;;;;;;76.43;38.20;;;;;;;;;;5083414;28;20187;-75
2022/12/03 01:14:18;;;;;;;79.83;40.50;;;;;;;;;;5063645;28;20183;-76
2022/12/03 01:16:45;;;;;;;77.00;39.73;;;;;;;;;;5060448;28;20170;-76
2022/12/03 01:19:14;;;;;;;81.70;38.70;;;;;;;;;;5065887;28;20196;-76
2022/12/03 01:21:40;;;;;;;69.80;37.17;;;;;;;;;;5060949;28;20192;-76
2022/12/03 01:24:06;;;;;;;83.27;40.93;;;;;;;;;;5056296;28;20196;-75
2022/12/03 01:26:32;;;;;;;77.70;39.17;;;;;;;;;;5059712;28;20185;-76
2022/12/03 01:28:58;;;;;;;81.10;40.77;;;;;;;;;;5073674;28;20207;-76
2022/12/03 01:34:09;;;;;;;78.87;39.00;;;;;;;;;;5062702;28;20231;-76
2022/12/03 01:36:35;;;;;;;78.20;40.00;;;;;;;;;;5062277;28;20187;-75
2022/12/03 01:39:02;;;;;;;85.93;39.77;;;;;;;;;;5072115;28;20320;-75
2022/12/03 01:41:28;;;;;;;78.37;38.07;;;;;;;;;;5069066;28;20187;-75
2022/12/03 01:43:55;;;;;;;74.53;40.37;;;;;;;;;;5073763;28;20251;-75
2022/12/03 01:46:23;;;;;;;74.60;38.33;;;;;;;;;;5067665;28;20181;-75
2022/12/03 01:48:50;;;;;;;75.23;39.07;;;;;;;;;;5066925;28;20211;-75
2022/12/03 01:51:17;;;;;;;71.17;37.10;;;;;;;;;;5067803;28;20197;-74
2022/12/03 01:53:43;;;;;;;74.60;38.23;;;;;;;;;;5069431;28;20188;-75
2022/12/03 01:56:24;;;;;;;77.57;39.07;;;;;;;;;;5073570;28;20248;-74
2022/12/03 01:59:09;;;;;;;77.87;38.33;;;;;;;;;;5055912;28;20239;-74
2022/12/03 02:01:35;;;;;;;73.97;38.53;;;;;;;;;;5070378;28;20544;-74
2022/12/03 02:04:01;;;;;;;79.43;39.83;;;;;;;;;;5063798;28;20519;-75
2022/12/03 02:06:28;;;;;;;74.93;39.33;;;;;;;;;;5060426;28;20230;-74
2022/12/03 02:08:58;;;;;;;71.03;39.17;;;;;;;;;;5055817;28;20261;-73
2022/12/03 02:11:29;;;;;;;75.40;39.03;;;;;;;;;;5065317;28;20267;-75
2022/12/03 02:13:58;;;;;;;79.03;39.10;;;;;;;;;;5057661;28;20173;-74
2022/12/03 02:16:24;;;;;;;73.03;38.10;;;;;;;;;;5060729;28;20188;-75
2022/12/03 02:18:51;;;;;;;72.60;38.30;;;;;;;;;;5063446;28;20192;-74
2022/12/03 02:21:20;;;;;;;72.77;39.67;;;;;;;;;;5069728;28;20264;-74
2022/12/03 02:24:05;;;;;;;78.03;38.13;;;;;;;;;;5072914;28;20177;-75
2022/12/03 02:26:31;;;;;;;74.67;38.10;;;;;;;;;;5067595;28;20180;-77
2022/12/03 02:28:57;;;;;;;69.97;37.70;;;;;;;;;;5075032;28;20242;-77
2022/12/03 02:31:23;;;;;;;70.07;38.37;;;;;;;;;;5062189;28;20169;-74
2022/12/03 02:33:50;;;;;;;74.70;38.90;;;;;;;;;;5062037;28;20224;-73
2022/12/03 02:36:17;;;;;;;63.80;37.67;;;;;;;;;;5058666;28;20184;-76
2022/12/03 02:38:45;;;;;;;75.50;37.37;;;;;;;;;;5068923;28;20575;-77
2022/12/03 02:42:33;;;;;;;73.00;38.47;;;;;;;;;;5056298;28;20185;-77
2022/12/03 02:43:59;;;;;;;73.37;38.17;;;;;;;;;;5058921;28;20223;-76
2022/12/03 02:46:25;;;;;;;70.77;37.47;;;;;;;;;;5058670;28;20646;-77
2022/12/03 02:48:51;;;;;;;74.20;38.30;;;;;;;;;;5064730;28;20214;-77
2022/12/03 02:51:17;;;;;;;72.53;38.70;;;;;;;;;;5069888;28;20192;-77
2022/12/03 02:53:45;;;;;;;66.23;37.40;;;;;;;;;;5067934;28;20185;-74
2022/12/03 02:56:13;;;;;;;69.00;37.97;;;;;;;;;;5071922;28;20177;-77
2022/12/03 02:58:40;;;;;;;74.30;38.30;;;;;;;;;;5057044;28;20189;-73
2022/12/03 03:01:07;;;;;;;57.67;34.73;;;;;;;;;;5057025;28;20535;-76
2022/12/03 03:03:33;;;;;;;65.10;36.97;;;;;;;;;;5056393;28;20207;-74
2022/12/03 03:06:01;;;;;;;63.00;36.33;;;;;;;;;;5054858;28;20256;-77
2022/12/03 03:08:28;;;;;;;68.43;36.90;;;;;;;;;;5066246;28;20208;-76
2022/12/03 03:10:55;;;;;;;65.77;36.23;;;;;;;;;;5051843;28;20593;-76
2022/12/03 03:13:21;;;;;;;62.13;35.40;;;;;;;;;;5066120;28;20184;-77
2022/12/03 03:15:47;;;;;;;61.47;35.10;;;;;;;;;;5063253;28;20195;-74
2022/12/03 03:18:14;;;;;;;64.47;34.90;;;;;;;;;;5056463;28;20242;-77
2022/12/03 03:20:40;;;;;;;62.17;33.57;;;;;;;;;;5062111;28;20535;-75
2022/12/03 03:23:19;;;;;;;58.60;35.10;;;;;;;;;;5053280;28;21184;-74
2022/12/03 03:25:47;;;;;;;57.63;34.93;;;;;;;;;;5057745;28;20235;-76
2022/12/03 03:28:14;;;;;;;62.87;34.33;;;;;;;;;;5064655;28;20778;-75
2022/12/03 03:30:40;;;;;;;62.27;34.63;;;;;;;;;;5067923;28;20207;-74
2022/12/03 03:33:06;;;;;;;62.27;35.27;;;;;;;;;;5069169;28;20580;-75
2022/12/03 03:35:32;;;;;;;56.30;33.80;;;;;;;;;;5066909;28;20645;-75
2022/12/03 03:37:59;;;;;;;57.23;33.43;;;;;;;;;;5057506;28;20292;-74
2022/12/03 03:40:25;;;;;;;65.07;34.70;;;;;;;;;;5055933;28;20699;-75
2022/12/03 03:42:52;;;;;;;55.83;32.83;;;;;;;;;;5053781;28;20670;-74
2022/12/03 03:45:19;;;;;;;60.67;34.03;;;;;;;;;;5056396;28;20187;-75
2022/12/03 03:47:45;;;;;;;54.63;33.70;;;;;;;;;;5067202;28;25238;-74
2022/12/03 03:50:12;;;;;;;54.37;32.93;;;;;;;;;;5089996;28;20538;-75
2022/12/03 03:52:39;;;;;;;60.03;34.63;;;;;;;;;;5068773;28;20838;-75
2022/12/03 03:55:05;;;;;;;52.47;32.97;;;;;;;;;;5069299;28;20273;-75
2022/12/03 03:57:31;;;;;;;59.00;33.53;;;;;;;;;;5069555;28;20702;-74
2022/12/03 03:59:58;;;;;;;54.53;32.87;;;;;;;;;;5051105;28;20177;-75
2022/12/03 04:02:24;;;;;;;55.43;31.73;;;;;;;;;;5067510;28;20172;-74
2022/12/03 04:04:50;;;;;;;57.00;33.83;;;;;;;;;;5066164;28;20229;-76
2022/12/03 04:07:17;;;;;;;55.73;33.50;;;;;;;;;;5060339;28;20208;-74
2022/12/03 04:09:43;;;;;;;52.50;33.63;;;;;;;;;;5057252;28;20270;-74
2022/12/03 04:14:55;;;;;;;60.43;33.90;;;;;;;;;;5052443;28;20262;-73
2022/12/03 04:17:21;;;;;;;53.23;32.73;;;;;;;;;;5055378;28;20240;-76
2022/12/03 04:19:47;;;;;;;54.57;32.30;;;;;;;;;;5064730;28;20279;-74
2022/12/03 04:30:27;;;;;;;48.70;31.50;;;;;;;;;;5055048;28;20610;-75
2022/12/03 04:35:44;;;;;;;51.57;31.90;;;;;;;;;;5069512;28;20183;-75
2022/12/03 04:38:10;;;;;;;49.43;30.57;;;;;;;;;;5060045;28;20177;-75
2022/12/03 04:43:22;;;;;;;54.80;32.80;;;;;;;;;;5056798;28;20246;-75
2022/12/03 04:45:48;;;;;;;48.50;31.03;;;;;;;;;;5060958;28;20192;-75
2022/12/03 04:48:14;;;;;;;46.93;29.87;;;;;;;;;;5059292;28;20216;-74
2022/12/03 04:50:40;;;;;;;51.13;31.63;;;;;;;;;;5057070;28;20240;-75
2022/12/03 04:53:06;;;;;;;47.67;31.17;;;;;;;;;;5070847;28;20637;-74
2022/12/03 04:55:32;;;;;;;50.20;31.57;;;;;;;;;;5061522;28;20190;-75
2022/12/03 04:57:58;;;;;;;51.57;33.43;;;;;;;;;;5061009;28;20711;-74
2022/12/03 05:00:24;;;;;;;51.70;32.30;;;;;;;;;;5058249;28;20227;-74
2022/12/03 05:02:50;;;;;;;50.97;32.37;;;;;;;;;;5074770;28;20161;-74
2022/12/03 05:05:16;;;;;;;47.67;32.70;;;;;;;;;;5071585;28;20253;-74
2022/12/03 05:07:42;;;;;;;50.87;31.13;;;;;;;;;;5071493;28;20209;-74
2022/12/03 05:10:09;;;;;;;53.80;32.37;;;;;;;;;;5068393;28;20184;-75
2022/12/03 05:12:35;;;;;;;45.87;31.87;;;;;;;;;;5071512;28;20181;-74
2022/12/03 05:15:01;;;;;;;50.60;31.47;;;;;;;;;;5068348;28;20185;-75
2022/12/03 05:17:27;;;;;;;49.20;30.23;;;;;;;;;;5059219;28;20639;-75
2022/12/03 05:22:38;;;;;;;56.47;33.07;;;;;;;;;;5061374;28;20548;-74
2022/12/03 05:25:05;;;;;;;47.40;31.73;;;;;;;;;;5059730;28;20177;-75
2022/12/03 05:27:31;;;;;;;51.70;31.20;;;;;;;;;;5054405;28;20690;-74
2022/12/03 05:29:57;;;;;;;50.37;32.40;;;;;;;;;;5053122;28;20212;-75
2022/12/03 05:32:23;;;;;;;49.87;30.90;;;;;;;;;;5073634;28;20264;-74
2022/12/03 05:34:49;;;;;;;48.97;32.30;;;;;;;;;;5068366;28;20646;-74
2022/12/03 05:37:15;;;;;;;50.33;32.40;;;;;;;;;;5065936;28;20238;-75
2022/12/03 05:39:41;;;;;;;49.40;31.57;;;;;;;;;;5055641;28;20265;-75
2022/12/03 05:44:51;;;;;;;47.23;29.83;;;;;;;;;;5069805;28;20187;-74
2022/12/03 05:47:17;;;;;;;51.60;32.33;;;;;;;;;;5055547;28;20557;-75
2022/12/03 05:49:43;;;;;;;47.87;30.80;;;;;;;;;;5066220;28;20200;-73
2022/12/03 05:52:09;;;;;;;50.50;31.30;;;;;;;;;;5062625;28;20211;-75
2022/12/03 05:54:35;;;;;;;54.37;31.17;;;;;;;;;;5067369;28;20188;-76
2022/12/03 05:57:01;;;;;;;51.90;32.60;;;;;;;;;;5070701;28;20529;-75
2022/12/03 05:59:27;;;;;;;49.57;32.17;;;;;;;;;;5053982;28;20184;-75
2022/12/03 06:01:53;;;;;;;49.90;32.00;;;;;;;;;;5058561;28;20189;-74
2022/12/03 06:04:19;;;;;;;49.73;31.67;;;;;;;;;;5060826;28;20594;-74
2022/12/03 06:06:45;;;;;;;47.80;30.83;;;;;;;;;;5054791;28;20182;-74
2022/12/03 06:09:11;;;;;;;51.93;30.63;;;;;;;;;;5069042;28;20211;-74
2022/12/03 06:11:38;;;;;;;47.30;30.00;;;;;;;;;;5084217;28;20637;-75
2022/12/03 06:14:04;;;;;;;47.73;30.63;;;;;;;;;;5065111;28;20695;-75
2022/12/03 06:16:31;;;;;;;51.57;31.03;;;;;;;;;;5070043;28;20211;-74
2022/12/03 06:18:57;;;;;;;50.80;30.97;;;;;;;;;;5067865;28;20193;-74
2022/12/03 06:21:23;;;;;;;46.33;30.27;;;;;;;;;;5068967;28;20186;-73
2022/12/03 06:23:49;;;;;;;57.10;31.77;;;;;;;;;;5056728;28;20181;-74
2022/12/03 06:26:15;;;;;;;46.90;30.13;;;;;;;;;;5059405;28;20701;-74
2022/12/03 06:28:46;;;;;;;49.90;31.30;;;;;;;;;;5066165;28;20208;-74
2022/12/03 06:31:12;;;;;;;48.97;31.43;;;;;;;;;;5066350;28;20194;-74
2022/12/03 06:33:38;;;;;;;45.53;30.80;;;;;;;;;;5057394;28;20269;-74
2022/12/03 06:36:05;;;;;;;52.80;30.97;;;;;;;;;;5053627;28;20177;-75
2022/12/03 06:38:31;;;;;;;50.93;31.57;;;;;;;;;;5054394;28;20208;-76
2022/12/03 06:40:57;;;;;;;50.73;30.47;;;;;;;;;;5068141;28;20231;-74
2022/12/03 06:43:23;;;;;;;48.07;31.37;;;;;;;;;;5070667;28;20720;-74
2022/12/03 06:45:49;;;;;;;43.30;29.63;;;;;;;;;;5066100;28;20238;-75
2022/12/03 06:48:15;;;;;;;47.27;30.10;;;;;;;;;;5056672;28;20205;-75
2022/12/03 06:50:41;;;;;;;48.07;30.33;;;;;;;;;;5058867;28;20260;-74
2022/12/03 06:53:07;;;;;;;43.83;27.77;;;;;;;;;;5067694;28;20933;-75
2022/12/03 06:55:33;;;;;;;47.17;29.50;;;;;;;;;;5060585;28;20193;-75
2022/12/03 06:57:59;;;;;;;47.03;29.70;;;;;;;;;;5058859;28;20185;-75
2022/12/03 07:00:25;;;;;;;52.53;31.57;;;;;;;;;;5053292;28;20664;-76
2022/12/03 07:02:51;;;;;;;47.50;30.27;;;;;;;;;;5062660;28;20184;-75
2022/12/03 07:05:17;;;;;;;49.03;30.40;;;;;;;;;;5057858;28;20185;-76
2022/12/03 07:07:43;;;;;;;47.07;31.27;;;;;;;;;;5057188;28;20347;-75
2022/12/03 07:10:09;;;;;;;52.73;32.03;;;;;;;;;;5054424;28;20268;-74
2022/12/03 07:12:35;;;;;;;48.17;30.63;;;;;;;;;;5054206;28;20189;-75
2022/12/03 07:15:01;;;;;;;52.30;31.70;;;;;;;;;;5069481;28;20165;-75
2022/12/03 07:17:27;;;;;;;49.23;31.07;;;;;;;;;;5053479;28;20546;-75
2022/12/03 07:19:53;;;;;;;48.77;30.33;;;;;;;;;;5057950;28;20204;-76
2022/12/03 07:22:19;;;;;;;51.93;30.90;;;;;;;;;;5061116;28;20189;-76
2022/12/03 07:24:45;;;;;;;49.77;32.13;;;;;;;;;;5070146;28;20695;-75
2022/12/03 07:27:11;;;;;;;45.63;30.20;;;;;;;;;;5054059;28;20276;-74
2022/12/03 07:29:37;;;;;;;50.50;31.27;;;;;;;;;;5081579;28;20208;-75
2022/12/03 07:32:03;;;;;;;49.60;31.70;;;;;;;;;;5069111;28;20234;-75
2022/12/03 07:34:29;;;;;;;48.20;31.57;;;;;;;;;;5065157;28;20239;-74
2022/12/03 07:36:55;;;;;;;50.67;31.33;;;;;;;;;;5062944;28;20180;-75
2022/12/03 07:39:21;;;;;;;49.90;32.40;;;;;;;;;;5067260;28;20180;-75
2022/12/03 07:41:47;;;;;;;46.00;30.73;;;;;;;;;;5060827;28;20188;-75
2022/12/03 07:44:13;;;;;;;45.97;30.00;;;;;;;;;;5065632;28;20664;-75
2022/12/03 07:46:39;;;;;;;49.70;30.47;;;;;;;;;;5057363;28;20188;-75
2022/12/03 07:49:05;;;;;;;49.87;30.27;;;;;;;;;;5053722;28;20206;-75
2022/12/03 07:51:31;;;;;;;46.53;30.63;;;;;;;;;;5053945;28;20246;-75
2022/12/03 07:53:57;;;;;;;46.50;29.80;;;;;;;;;;5063817;28;20232;-75
2022/12/03 07:56:23;;;;;;;49.47;30.53;;;;;;;;;;5066111;28;20215;-75
2022/12/03 07:58:49;;;;;;;46.03;30.30;;;;;;;;;;5067866;28;20645;-74
2022/12/03 08:01:15;;;;;;;47.53;31.00;;;;;;;;;;5066568;28;20180;-75
2022/12/03 08:03:41;;;;;;;46.63;30.40;;;;;;;;;;5060737;28;20177;-74
2022/12/03 08:06:08;;;;;;;49.93;30.97;;;;;;;;;;5066463;28;20185;-75
2022/12/03 08:08:34;;;;;;;43.83;29.17;;;;;;;;;;5056708;28;20201;-75
2022/12/03 08:11:00;;;;;;;49.50;31.10;;;;;;;;;;5065417;28;20279;-75
2022/12/03 08:13:27;;;;;;;49.93;30.10;;;;;;;;;;5068123;28;20270;-74
2022/12/03 08:15:55;;;;;;;47.00;30.30;;;;;;;;;;5068843;28;20186;-74
2022/12/03 08:18:21;;;;;;;44.87;29.47;;;;;;;;;;5053638;28;20752;-75
2022/12/03 08:20:48;;;;;;;46.83;30.80;;;;;;;;;;5052315;28;20176;-75
2022/12/03 08:23:16;;;;;;;40.50;28.87;;;;;;;;;;5063435;28;20266;-75
2022/12/03 08:25:42;;;;;;;42.73;29.10;;;;;;;;;;5062328;28;20185;-74
2022/12/03 08:28:11;;;;;;;44.03;29.77;;;;;;;;;;5065529;28;20830;-74
2022/12/03 08:30:37;;;;;;;48.20;30.17;;;;;;;;;;5059373;28;20190;-74
2022/12/03 08:33:32;;;;;;;50.57;31.27;;;;;;;;;;5056509;28;20234;-75
2022/12/03 08:35:58;;;;;;;45.90;30.43;;;;;;;;;;5081104;28;20200;-74
2022/12/03 08:38:24;;;;;;;51.47;31.70;;;;;;;;;;5068554;28;20185;-74
2022/12/03 08:40:51;;;;;;;44.67;29.10;;;;;;;;;;5065266;28;20201;-74
2022/12/03 08:43:25;;;;;;;42.80;29.30;;;;;;;;;;5056860;28;20177;-75
2022/12/03 08:45:52;;;;;;;48.70;30.33;;;;;;;;;;5057055;28;20181;-75
2022/12/03 08:48:18;;;;;;;46.37;30.67;;;;;;;;;;5068401;28;20230;-75
2022/12/03 08:50:44;;;;;;;46.70;31.43;;;;;;;;;;5062723;28;20631;-75
2022/12/03 08:53:13;;;;;;;42.57;29.23;;;;;;;;;;5065274;28;20185;-76
2022/12/03 08:55:43;;;;;;;49.40;30.53;;;;;;;;;;5061210;28;20177;-75
2022/12/03 08:58:17;;;;;;;48.87;32.83;;;;;;;;;;5065452;28;20198;-75
2022/12/03 09:00:43;;;;;;;53.13;31.40;;;;;;;;;;5068430;28;20219;-76
2022/12/03 09:03:13;;;;;;;46.67;30.47;;;;;;;;;;5094011;28;20180;-78
2022/12/03 09:05:40;;;;;;;47.77;31.60;;;;;;;;;;5068197;28;20170;-75
2022/12/03 09:08:06;;;;;;;48.07;32.80;;;;;;;;;;5067903;28;20208;-76
2022/12/03 09:10:32;;;;;;;43.13;29.63;;;;;;;;;;5064398;28;20194;-76
2022/12/03 09:12:58;;;;;;;45.30;31.00;;;;;;;;;;5054350;28;20210;-77
2022/12/03 09:15:24;;;;;;;44.53;30.13;;;;;;;;;;5066006;28;20173;-77
2022/12/03 09:17:50;;;;;;;48.87;32.47;;;;;;;;;;5051355;28;20189;-76
2022/12/03 09:20:16;;;;;;;49.03;32.07;;;;;;;;;;5062893;28;20177;-76
2022/12/03 09:22:42;;;;;;;46.30;30.47;;;;;;;;;;5060375;28;20188;-77
2022/12/03 09:25:08;;;;;;;48.27;30.13;;;;;;;;;;5056984;28;20190;-76
2022/12/03 09:27:34;;;;;;;44.80;30.63;;;;;;;;;;5070755;28;20209;-76
2022/12/03 09:30:00;;;;;;;42.40;30.00;;;;;;;;;;5054060;28;20236;-76
2022/12/03 09:32:26;;;;;;;43.63;30.37;;;;;;;;;;5056278;28;20232;-76
2022/12/03 09:34:52;;;;;;;43.10;31.23;;;;;;;;;;5055904;28;20261;-76
2022/12/03 09:37:19;;;;;;;48.00;32.33;;;;;;;;;;5067019;28;20189;-77
2022/12/03 09:39:45;;;;;;;50.83;32.20;;;;;;;;;;5070289;28;20178;-76
2022/12/03 09:42:11;;;;;;;44.03;29.53;;;;;;;;;;5068721;28;20177;-76
2022/12/03 09:44:38;;;;;;;45.50;31.23;;;;;;;;;;5059494;28;20582;-76
2022/12/03 09:47:04;;;;;;;46.43;29.63;;;;;;;;;;5062260;28;20193;-76
2022/12/03 09:49:31;;;;;;;45.50;30.90;;;;;;;;;;5066098;28;20688;-76
2022/12/03 09:51:57;;;;;;;49.93;31.83;;;;;;;;;;5069600;28;20648;-77
2022/12/03 09:54:26;;;;;;;49.90;31.67;;;;;;;;;;5069709;28;20197;-76
2022/12/03 09:56:53;;;;;;;46.33;29.77;;;;;;;;;;5070601;28;20169;-77
2022/12/03 09:59:20;;;;;;;43.90;30.37;;;;;;;;;;5068585;28;20196;-76
2022/12/03 10:01:46;;;;;;;49.87;31.47;;;;;;;;;;5064219;28;20791;-77
2022/12/03 10:04:12;;;;;;;47.17;30.60;;;;;;;;;;5058938;28;20173;-76
2022/12/03 10:06:39;;;;;;;44.53;30.63;;;;;;;;;;5071376;28;20572;-77
2022/12/03 10:09:05;;;;;;;44.20;29.83;;;;;;;;;;5071811;28;20236;-77
2022/12/03 10:11:32;;;;;;;42.23;29.30;;;;;;;;;;5060390;28;20288;-77
2022/12/03 10:13:58;;;;;;;48.17;31.23;;;;;;;;;;5059850;28;20188;-77
2022/12/03 10:16:25;;;;;;;44.77;29.77;;;;;;;;;;5058580;28;20173;-77
2022/12/03 10:18:52;;;;;;;49.17;31.77;;;;;;;;;;5054649;28;20181;-78
2022/12/03 10:21:45;;;;;;;51.87;32.17;;;;;;;;;;5070866;28;20622;-78
2022/12/03 10:24:19;;;;;;;50.53;32.60;;;;;;;;;;5068178;28;20215;-77
2022/12/03 10:26:46;;;;;;;50.43;32.70;;;;;;;;;;5064055;28;20622;-78
2022/12/03 10:29:17;;;;;;;50.37;33.43;;;;;;;;;;5060700;28;20246;-77
2022/12/03 10:31:44;;;;;;;51.00;33.10;;;;;;;;;;5070524;28;20272;-78
2022/12/03 10:34:10;;;;;;;48.80;32.13;;;;;;;;;;5069550;28;20213;-78
2022/12/03 10:36:36;;;;;;;45.93;30.87;;;;;;;;;;5069163;28;20336;-78
2022/12/03 10:39:09;;;;;;;46.67;32.07;;;;;;;;;;5065616;28;20215;-77
2022/12/03 10:41:36;;;;;;;54.43;33.43;;;;;;;;;;5063971;28;20194;-79
2022/12/03 10:44:19;;;;;;;49.07;32.03;;;;;;;;;;5059751;28;20186;-79
2022/12/03 10:46:45;;;;;;;52.90;33.43;;;;;;;;;;5077559;28;20189;-77
2022/12/03 10:49:15;;;;;;;50.27;31.77;;;;;;;;;;5063862;28;20209;-80
2022/12/03 10:51:41;;;;;;;49.33;32.60;;;;;;;;;;5055349;28;20193;-79
2022/12/03 10:54:13;;;;;;;49.30;31.90;;;;;;;;;;5073109;28;20231;-81
2022/12/03 10:56:39;;;;;;;51.00;32.93;;;;;;;;;;5059138;28;20231;-79
2022/12/03 10:59:05;;;;;;;50.07;32.40;;;;;;;;;;5057487;28;20216;-79
2022/12/03 11:01:31;;;;;;;54.50;33.20;;;;;;;;;;5066467;28;20300;-81
2022/12/03 11:04:02;;;;;;;52.00;33.97;;;;;;;;;;5077550;28;20267;-80
2022/12/03 11:06:30;;;;;;;51.17;33.17;;;;;;;;;;5078335;28;20253;-79
2022/12/03 11:08:56;;;;;;;50.17;32.50;;;;;;;;;;5078492;28;20196;-79
2022/12/03 11:11:24;;;;;;;52.03;32.97;;;;;;;;;;5079244;28;20185;-80
2022/12/03 11:14:00;;;;;;;49.13;33.10;;;;;;;;;;5078663;28;20189;-80
2022/12/03 11:16:46;;;;;;;55.97;35.00;;;;;;;;;;5074745;28;20650;-78
2022/12/03 11:19:12;;;;;;;53.07;34.00;;;;;;;;;;5071081;28;20201;-78
2022/12/03 11:21:57;;;;;;;51.47;33.70;;;;;;;;;;5073382;28;20187;-78
2022/12/03 11:24:23;;;;;;;49.97;33.67;;;;;;;;;;5070791;28;20201;-77
2022/12/03 11:26:49;;;;;;;57.10;34.93;;;;;;;;;;5058423;28;20217;-77
2022/12/03 11:29:15;;;;;;;54.10;34.13;;;;;;;;;;5060480;28;20656;-78
2022/12/03 11:31:45;;;;;;;54.40;35.13;;;;;;;;;;5064126;28;20190;-79
2022/12/03 11:34:30;;;;;;;48.90;32.27;;;;;;;;;;5024533;28;20325;-78
2022/12/03 11:37:11;;;;;;;55.13;35.43;;;;;;;;;;5026325;28;20281;-76
2022/12/03 11:39:49;;;;;;;58.27;34.60;;;;;;;;;;5015915;28;20194;-78
2022/12/03 11:42:27;;;;;;;55.23;36.10;;;;;;;;;;5009959;28;20265;-76
2022/12/03 11:45:05;;;;;;;58.83;35.10;;;;;;;;;;5026814;28;20186;-78
2022/12/03 11:47:39;;;;;;;50.87;34.43;;;;;;;;;;5024762;28;20297;-76
2022/12/03 11:50:31;;;;;;;56.63;35.33;;;;;;;;;;5029189;28;20348;-78
2022/12/03 11:53:01;;;;;;;58.93;35.60;;;;;;;;;;5006871;28;20712;-77
2022/12/03 11:55:32;;;;;;;54.03;34.60;;;;;;;;;;5025883;28;20279;-78
2022/12/03 11:57:59;;;;;;;57.87;36.20;;;;;;;;;;5012225;28;20190;-77
2022/12/03 12:00:25;;;;;;;55.00;34.73;;;;;;;;;;5023653;28;20662;-77
2022/12/03 12:02:53;;;;;;;61.63;34.23;;;;;;;;;;5005325;28;20233;-79
2022/12/03 12:05:22;;;;;;;55.20;34.17;;;;;;;;;;5000716;28;20217;-78
2022/12/03 12:07:48;;;;;;;54.10;35.10;;;;;;;;;;5019844;28;20714;-78
2022/12/03 12:10:34;;;;;;;57.60;35.80;;;;;;;;;;5008466;28;20222;-78
2022/12/03 12:13:00;;;;;;;58.13;35.50;;;;;;;;;;5058810;28;20192;-78
2022/12/03 12:15:38;;;;;;;53.93;34.97;;;;;;;;;;5062570;28;20170;-77
2022/12/03 12:18:23;;;;;;;56.93;35.67;;;;;;;;;;5067213;28;20641;-80
2022/12/03 12:20:49;;;;;;;53.90;36.27;;;;;;;;;;5057634;28;20186;-76
2022/12/03 12:23:27;;;;;;;54.73;34.60;;;;;;;;;;5061942;28;20315;-79
2022/12/03 12:26:04;;;;;;;55.13;35.57;;;;;;;;;;5067285;28;20490;-77
2022/12/03 12:28:30;;;;;;;55.83;35.47;;;;;;;;;;5065396;28;20239;-78
2022/12/03 12:30:56;;;;;;;62.87;37.43;;;;;;;;;;5062872;28;20646;-76
2022/12/03 12:33:24;;;;;;;62.67;40.77;;;;;;;;;;5072712;28;20220;-77
2022/12/03 12:35:51;;;;;;;60.37;37.47;;;;;;;;;;5057072;28;20206;-75
2022/12/03 12:38:18;;;;;;;59.23;35.57;;;;;;;;;;5058272;28;20178;-77
2022/12/03 12:40:45;;;;;;;73.47;46.13;;;;;;;;;;5056215;28;20264;-78
2022/12/03 12:43:11;;;;;;;65.23;40.17;;;;;;;;;;5068605;28;20204;-76
2022/12/03 12:45:40;;;;;;;81.30;51.43;;;;;;;;;;5060556;28;20643;-77
2022/12/03 12:48:09;;;;;;;57.63;37.27;;;;;;;;;;5064109;28;20670;-77
2022/12/03 12:50:36;;;;;;;57.70;35.97;;;;;;;;;;5064407;28;20212;-78
2022/12/03 12:53:11;;;;;;;58.13;35.17;;;;;;;;;;5057842;28;20182;-77
2022/12/03 12:55:41;;;;;;;55.27;34.73;;;;;;;;;;5055203;28;20181;-77
2022/12/03 12:58:17;;;;;;;57.00;35.07;;;;;;;;;;5072821;28;20188;-77
2022/12/03 13:00:50;;;;;;;53.63;34.20;;;;;;;;;;5068426;28;20191;-77
2022/12/03 13:03:17;;;;;;;59.73;33.83;;;;;;;;;;5072503;28;20192;-77
2022/12/03 13:05:44;;;;;;;59.70;35.77;;;;;;;;;;5060527;28;20186;-78
2022/12/03 13:08:25;;;;;;;57.97;36.80;;;;;;;;;;5062306;28;20593;-77
2022/12/03 13:10:55;;;;;;;57.27;36.90;;;;;;;;;;5061191;28;20263;-75
2022/12/03 13:13:23;;;;;;;55.10;34.83;;;;;;;;;;5070487;28;20180;-77
2022/12/03 13:15:51;;;;;;;62.77;37.73;;;;;;;;;;5054398;28;20188;-77
2022/12/03 13:18:25;;;;;;;61.00;38.27;;;;;;;;;;5072126;28;20203;-76
2022/12/03 13:20:52;;;;;;;61.13;37.50;;;;;;;;;;5071809;28;20196;-77
2022/12/03 13:23:38;;;;;;;66.30;38.07;;;;;;;;;;5068307;28;20197;-77
2022/12/03 13:26:12;;;;;;;59.90;36.67;;;;;;;;;;5063854;28;20197;-76
2022/12/03 13:28:40;;;;;;;61.93;37.33;;;;;;;;;;5056978;28;21013;-77
2022/12/03 13:31:16;;;;;;;63.57;37.53;;;;;;;;;;5062811;28;20196;-78
2022/12/03 13:33:42;;;;;;;55.60;35.97;;;;;;;;;;5059735;28;20217;-77
2022/12/03 13:36:12;;;;;;;58.70;36.30;;;;;;;;;;5083163;28;20189;-78
2022/12/03 13:38:38;;;;;;;61.43;37.33;;;;;;;;;;5055882;28;20186;-77
2022/12/03 13:41:04;;;;;;;59.30;37.30;;;;;;;;;;5059885;28;20193;-77
2022/12/03 13:43:32;;;;;;;63.17;37.40;;;;;;;;;;5061681;28;20193;-76
2022/12/03 13:46:00;;;;;;;64.70;38.23;;;;;;;;;;5064847;28;20174;-78
2022/12/03 13:48:31;;;;;;;59.00;37.73;;;;;;;;;;5065768;28;20250;-77
2022/12/03 13:50:57;;;;;;;62.33;38.73;;;;;;;;;;5059541;28;20268;-76
2022/12/03 13:53:25;;;;;;;66.77;39.83;;;;;;;;;;5062083;28;20273;-76
2022/12/03 13:55:53;;;;;;;68.43;38.83;;;;;;;;;;5066486;28;20343;-75
2022/12/03 13:58:19;;;;;;;62.83;37.90;;;;;;;;;;5058196;28;20192;-75
2022/12/03 14:00:45;;;;;;;60.63;39.57;;;;;;;;;;5066255;28;20173;-75
2022/12/03 14:03:11;;;;;;;64.73;40.53;;;;;;;;;;5056069;28;20182;-76
2022/12/03 14:05:37;;;;;;;67.63;41.70;;;;;;;;;;5065558;28;20173;-75
2022/12/03 14:08:04;;;;;;;66.93;39.57;;;;;;;;;;5063009;28;20233;-75
2022/12/03 14:10:30;;;;;;;69.03;40.83;;;;;;;;;;5060518;28;20196;-75
2022/12/03 14:12:56;;;;;;;70.13;40.63;;;;;;;;;;5069641;28;20714;-76
2022/12/03 14:15:25;;;;;;;67.97;41.57;;;;;;;;;;5059810;28;20189;-76
2022/12/03 14:17:51;;;;;;;67.43;41.33;;;;;;;;;;5065679;28;20247;-75
2022/12/03 14:20:17;;;;;;;75.40;41.10;;;;;;;;;;5069604;28;20176;-76
2022/12/03 14:22:43;;;;;;;71.77;41.83;;;;;;;;;;5073674;28;20332;-77
2022/12/03 14:25:09;;;;;;;82.47;42.97;;;;;;;;;;5080763;28;20193;-76
2022/12/03 14:27:35;;;;;;;74.87;42.53;;;;;;;;;;5094909;28;20212;-77
2022/12/03 14:30:01;;;;;;;74.10;42.53;;;;;;;;;;5073989;28;20221;-77
2022/12/03 14:32:27;;;;;;;75.03;42.70;;;;;;;;;;5080331;28;20240;-77
2022/12/03 14:34:53;;;;;;;77.00;44.03;;;;;;;;;;5075107;28;20196;-77
2022/12/03 14:37:19;;;;;;;79.23;43.43;;;;;;;;;;5073747;28;20180;-76
2022/12/03 14:39:45;;;;;;;67.77;41.70;;;;;;;;;;5077879;28;20200;-76
2022/12/03 14:42:11;;;;;;;74.90;42.73;;;;;;;;;;5076743;28;20268;-76
2022/12/03 14:44:37;;;;;;;81.53;43.23;;;;;;;;;;5075593;28;20184;-77